sensor_id;sensor_type;location;lat;lon;timestamp;temperature;humidity
32600;DHT22;19277;51.778;7.912;2023-04-06T00:04:37;19.60;55.30
32600;DHT22;19277;51.778;7.912;2023-04-06T00:07:10;19.60;55.30
32600;DHT22;19277;51.778;7.912;2023-04-06T00:09:39;19.60;55.40
32600;DHT22;19277;51.778;7.912;2023-04-06T00:12:11;19.70;55.60
32600;DHT22;19277;51.778;7.912;2023-04-06T00:14:39;19.70;55.60
32600;DHT22;19277;51.778;7.912;2023-04-06T00:17:10;19.70;55.70
32600;DHT22;19277;51.778;7.912;2023-04-06T00:19:42;19.70;55.70
32600;DHT22;19277;51.778;7.912;2023-04-06T00:22:13;19.70;55.70
32600;DHT22;19277;51.778;7.912;2023-04-06T00:24:44;19.70;55.70
32600;DHT22;19277;51.778;7.912;2023-04-06T00:27:16;19.80;55.90
32600;DHT22;19277;51.778;7.912;2023-04-06T00:29:47;19.80;56.00
32600;DHT22;19277;51.778;7.912;2023-04-06T00:32:16;19.80;56.10
32600;DHT22;19277;51.778;7.912;2023-04-06T00:34:44;19.80;56.10
32600;DHT22;19277;51.778;7.912;2023-04-06T00:37:11;19.90;56.30
32600;DHT22;19277;51.778;7.912;2023-04-06T00:39:43;19.90;56.30
32600;DHT22;19277;51.778;7.912;2023-04-06T00:42:24;19.90;56.30
32600;DHT22;19277;51.778;7.912;2023-04-06T00:45:00;19.90;56.40
32600;DHT22;19277;51.778;7.912;2023-04-06T00:47:36;19.90;56.40
32600;DHT22;19277;51.778;7.912;2023-04-06T00:50:05;19.90;56.50
32600;DHT22;19277;51.778;7.912;2023-04-06T00:52:32;19.90;56.50
32600;DHT22;19277;51.778;7.912;2023-04-06T00:54:58;19.90;56.50
32600;DHT22;19277;51.778;7.912;2023-04-06T00:57:24;19.90;56.60
32600;DHT22;19277;51.778;7.912;2023-04-06T00:59:49;20.00;56.70
32600;DHT22;19277;51.778;7.912;2023-04-06T01:02:16;20.00;56.70
32600;DHT22;19277;51.778;7.912;2023-04-06T01:04:42;20.00;56.90
32600;DHT22;19277;51.778;7.912;2023-04-06T01:07:08;20.00;57.00
32600;DHT22;19277;51.778;7.912;2023-04-06T01:09:33;20.00;57.10
32600;DHT22;19277;51.778;7.912;2023-04-06T01:11:59;20.00;57.10
32600;DHT22;19277;51.778;7.912;2023-04-06T01:14:25;20.00;57.30
32600;DHT22;19277;51.778;7.912;2023-04-06T01:16:51;20.00;57.20
32600;DHT22;19277;51.778;7.912;2023-04-06T01:19:17;20.00;57.30
32600;DHT22;19277;51.778;7.912;2023-04-06T01:21:43;20.00;57.30
32600;DHT22;19277;51.778;7.912;2023-04-06T01:24:09;20.00;57.40
32600;DHT22;19277;51.778;7.912;2023-04-06T01:26:35;20.00;57.40
32600;DHT22;19277;51.778;7.912;2023-04-06T01:29:02;20.00;57.60
32600;DHT22;19277;51.778;7.912;2023-04-06T01:31:28;20.10;57.60
32600;DHT22;19277;51.778;7.912;2023-04-06T01:33:53;20.10;57.70
32600;DHT22;19277;51.778;7.912;2023-04-06T01:36:19;20.10;57.70
32600;DHT22;19277;51.778;7.912;2023-04-06T01:38:46;20.10;57.70
32600;DHT22;19277;51.778;7.912;2023-04-06T01:41:11;20.10;57.60
32600;DHT22;19277;51.778;7.912;2023-04-06T01:43:37;20.10;57.60
32600;DHT22;19277;51.778;7.912;2023-04-06T01:46:03;20.10;57.60
32600;DHT22;19277;51.778;7.912;2023-04-06T01:48:28;20.20;57.70
32600;DHT22;19277;51.778;7.912;2023-04-06T01:50:54;20.10;57.80
32600;DHT22;19277;51.778;7.912;2023-04-06T01:53:21;20.10;57.70
32600;DHT22;19277;51.778;7.912;2023-04-06T01:55:46;20.10;57.80
32600;DHT22;19277;51.778;7.912;2023-04-06T01:58:13;20.10;57.80
32600;DHT22;19277;51.778;7.912;2023-04-06T02:00:39;20.10;57.80
32600;DHT22;19277;51.778;7.912;2023-04-06T02:03:05;20.10;57.90
32600;DHT22;19277;51.778;7.912;2023-04-06T02:05:31;20.10;58.00
32600;DHT22;19277;51.778;7.912;2023-04-06T02:07:58;20.10;58.00
32600;DHT22;19277;51.778;7.912;2023-04-06T02:10:24;20.10;58.00
32600;DHT22;19277;51.778;7.912;2023-04-06T02:12:50;20.10;58.10
32600;DHT22;19277;51.778;7.912;2023-04-06T02:15:16;20.10;58.20
32600;DHT22;19277;51.778;7.912;2023-04-06T02:17:42;20.10;58.50
32600;DHT22;19277;51.778;7.912;2023-04-06T02:20:08;20.20;58.50
32600;DHT22;19277;51.778;7.912;2023-04-06T02:22:35;20.20;58.60
32600;DHT22;19277;51.778;7.912;2023-04-06T02:25:01;20.20;58.50
32600;DHT22;19277;51.778;7.912;2023-04-06T02:27:27;20.20;58.50
32600;DHT22;19277;51.778;7.912;2023-04-06T02:29:52;20.30;58.50
32600;DHT22;19277;51.778;7.912;2023-04-06T02:32:18;20.20;58.50
32600;DHT22;19277;51.778;7.912;2023-04-06T02:34:44;20.20;58.50
32600;DHT22;19277;51.778;7.912;2023-04-06T02:37:09;20.30;58.60
32600;DHT22;19277;51.778;7.912;2023-04-06T02:39:35;20.30;58.60
32600;DHT22;19277;51.778;7.912;2023-04-06T02:42:01;20.30;58.60
32600;DHT22;19277;51.778;7.912;2023-04-06T02:44:26;20.30;58.70
32600;DHT22;19277;51.778;7.912;2023-04-06T02:46:52;20.30;58.70
32600;DHT22;19277;51.778;7.912;2023-04-06T02:49:17;20.30;58.80
32600;DHT22;19277;51.778;7.912;2023-04-06T02:51:43;20.30;58.80
32600;DHT22;19277;51.778;7.912;2023-04-06T02:54:09;20.30;58.80
32600;DHT22;19277;51.778;7.912;2023-04-06T02:56:34;20.30;58.90
32600;DHT22;19277;51.778;7.912;2023-04-06T02:59:00;20.30;59.00
32600;DHT22;19277;51.778;7.912;2023-04-06T03:01:26;20.30;59.10
32600;DHT22;19277;51.778;7.912;2023-04-06T03:03:52;20.30;59.10
32600;DHT22;19277;51.778;7.912;2023-04-06T03:06:17;20.20;59.10
32600;DHT22;19277;51.778;7.912;2023-04-06T03:08:43;20.30;59.30
32600;DHT22;19277;51.778;7.912;2023-04-06T03:11:09;20.30;59.30
32600;DHT22;19277;51.778;7.912;2023-04-06T03:13:35;20.30;59.40
32600;DHT22;19277;51.778;7.912;2023-04-06T03:16:01;20.30;59.40
32600;DHT22;19277;51.778;7.912;2023-04-06T03:18:26;20.30;59.50
32600;DHT22;19277;51.778;7.912;2023-04-06T03:20:52;20.30;59.50
32600;DHT22;19277;51.778;7.912;2023-04-06T03:23:20;20.30;59.60
32600;DHT22;19277;51.778;7.912;2023-04-06T03:25:46;20.30;59.40
32600;DHT22;19277;51.778;7.912;2023-04-06T03:28:12;20.30;59.50
32600;DHT22;19277;51.778;7.912;2023-04-06T03:30:38;20.30;59.60
32600;DHT22;19277;51.778;7.912;2023-04-06T03:33:03;20.30;59.60
32600;DHT22;19277;51.778;7.912;2023-04-06T03:35:29;20.30;59.60
32600;DHT22;19277;51.778;7.912;2023-04-06T03:37:55;20.30;59.70
32600;DHT22;19277;51.778;7.912;2023-04-06T03:40:20;20.30;59.70
32600;DHT22;19277;51.778;7.912;2023-04-06T03:42:46;20.30;59.70
32600;DHT22;19277;51.778;7.912;2023-04-06T03:45:12;20.30;59.80
32600;DHT22;19277;51.778;7.912;2023-04-06T03:47:40;20.30;59.70
32600;DHT22;19277;51.778;7.912;2023-04-06T03:50:06;20.30;59.80
32600;DHT22;19277;51.778;7.912;2023-04-06T03:52:32;20.30;59.90
32600;DHT22;19277;51.778;7.912;2023-04-06T03:54:57;20.30;60.00
32600;DHT22;19277;51.778;7.912;2023-04-06T03:57:23;20.30;60.00
32600;DHT22;19277;51.778;7.912;2023-04-06T03:59:51;20.30;60.00
32600;DHT22;19277;51.778;7.912;2023-04-06T04:02:17;20.30;60.00
32600;DHT22;19277;51.778;7.912;2023-04-06T04:04:43;20.30;60.10
32600;DHT22;19277;51.778;7.912;2023-04-06T04:07:08;20.30;60.10
32600;DHT22;19277;51.778;7.912;2023-04-06T04:09:34;20.30;60.20
32600;DHT22;19277;51.778;7.912;2023-04-06T04:11:59;20.30;60.10
32600;DHT22;19277;51.778;7.912;2023-04-06T04:14:25;20.30;60.30
32600;DHT22;19277;51.778;7.912;2023-04-06T04:16:51;20.30;60.30
32600;DHT22;19277;51.778;7.912;2023-04-06T04:19:16;20.30;60.30
32600;DHT22;19277;51.778;7.912;2023-04-06T04:21:43;20.30;60.40
32600;DHT22;19277;51.778;7.912;2023-04-06T04:24:10;20.30;60.40
32600;DHT22;19277;51.778;7.912;2023-04-06T04:26:36;20.30;60.50
32600;DHT22;19277;51.778;7.912;2023-04-06T04:29:01;20.30;60.40
32600;DHT22;19277;51.778;7.912;2023-04-06T04:31:27;20.40;60.50
32600;DHT22;19277;51.778;7.912;2023-04-06T04:33:53;20.30;60.50
32600;DHT22;19277;51.778;7.912;2023-04-06T04:36:18;20.40;60.60
32600;DHT22;19277;51.778;7.912;2023-04-06T04:38:44;20.40;60.80
32600;DHT22;19277;51.778;7.912;2023-04-06T04:41:10;20.40;60.80
32600;DHT22;19277;51.778;7.912;2023-04-06T04:43:35;20.40;60.90
32600;DHT22;19277;51.778;7.912;2023-04-06T04:46:04;20.40;61.00
32600;DHT22;19277;51.778;7.912;2023-04-06T04:48:30;20.40;61.10
32600;DHT22;19277;51.778;7.912;2023-04-06T04:50:56;20.50;61.00
32600;DHT22;19277;51.778;7.912;2023-04-06T04:53:22;20.50;61.00
32600;DHT22;19277;51.778;7.912;2023-04-06T04:55:47;20.50;61.00
32600;DHT22;19277;51.778;7.912;2023-04-06T04:58:13;20.50;61.10
32600;DHT22;19277;51.778;7.912;2023-04-06T05:00:42;20.60;61.20
32600;DHT22;19277;51.778;7.912;2023-04-06T05:03:08;20.60;61.10
32600;DHT22;19277;51.778;7.912;2023-04-06T05:05:34;20.60;61.20
32600;DHT22;19277;51.778;7.912;2023-04-06T05:08:01;20.70;61.20
32600;DHT22;19277;51.778;7.912;2023-04-06T05:10:26;20.70;61.20
32600;DHT22;19277;51.778;7.912;2023-04-06T05:12:53;20.70;61.00
32600;DHT22;19277;51.778;7.912;2023-04-06T05:15:18;20.70;61.00
32600;DHT22;19277;51.778;7.912;2023-04-06T05:17:44;20.80;61.10
32600;DHT22;19277;51.778;7.912;2023-04-06T05:20:11;20.90;61.00
32600;DHT22;19277;51.778;7.912;2023-04-06T05:22:36;20.90;60.90
32600;DHT22;19277;51.778;7.912;2023-04-06T05:25:03;21.00;60.70
32600;DHT22;19277;51.778;7.912;2023-04-06T05:27:28;21.10;60.50
32600;DHT22;19277;51.778;7.912;2023-04-06T05:29:54;21.20;60.40
32600;DHT22;19277;51.778;7.912;2023-04-06T05:32:20;21.30;60.30
32600;DHT22;19277;51.778;7.912;2023-04-06T05:34:48;21.40;60.10
32600;DHT22;19277;51.778;7.912;2023-04-06T05:37:15;21.40;59.90
32600;DHT22;19277;51.778;7.912;2023-04-06T05:39:41;21.50;59.80
32600;DHT22;19277;51.778;7.912;2023-04-06T05:42:06;21.60;59.60
32600;DHT22;19277;51.778;7.912;2023-04-06T05:44:32;21.70;59.50
32600;DHT22;19277;51.778;7.912;2023-04-06T05:46:58;21.80;59.30
32600;DHT22;19277;51.778;7.912;2023-04-06T05:49:23;21.90;59.20
32600;DHT22;19277;51.778;7.912;2023-04-06T05:51:49;21.90;59.00
32600;DHT22;19277;51.778;7.912;2023-04-06T05:54:15;22.00;58.90
32600;DHT22;19277;51.778;7.912;2023-04-06T05:56:41;22.00;58.80
32600;DHT22;19277;51.778;7.912;2023-04-06T05:59:06;22.10;58.70
32600;DHT22;19277;51.778;7.912;2023-04-06T06:01:33;22.20;58.70
32600;DHT22;19277;51.778;7.912;2023-04-06T06:04:00;22.20;58.60
32600;DHT22;19277;51.778;7.912;2023-04-06T06:06:28;22.30;58.80
32600;DHT22;19277;51.778;7.912;2023-04-06T06:08:55;22.30;58.60
32600;DHT22;19277;51.778;7.912;2023-04-06T06:11:23;22.40;58.50
32600;DHT22;19277;51.778;7.912;2023-04-06T06:13:49;22.40;58.30
32600;DHT22;19277;51.778;7.912;2023-04-06T06:16:15;22.50;58.10
32600;DHT22;19277;51.778;7.912;2023-04-06T06:18:40;22.50;58.00
32600;DHT22;19277;51.778;7.912;2023-04-06T06:21:06;22.60;57.80
32600;DHT22;19277;51.778;7.912;2023-04-06T06:23:32;22.60;57.70
32600;DHT22;19277;51.778;7.912;2023-04-06T06:25:57;22.60;57.60
32600;DHT22;19277;51.778;7.912;2023-04-06T06:28:23;22.60;57.40
32600;DHT22;19277;51.778;7.912;2023-04-06T06:30:50;22.60;57.40
32600;DHT22;19277;51.778;7.912;2023-04-06T06:33:16;22.70;57.30
32600;DHT22;19277;51.778;7.912;2023-04-06T06:35:42;22.70;57.80
32600;DHT22;19277;51.778;7.912;2023-04-06T06:38:08;22.70;57.20
32600;DHT22;19277;51.778;7.912;2023-04-06T06:40:34;20.70;39.90
32600;DHT22;19277;51.778;7.912;2023-04-06T06:42:59;18.90;38.90
32600;DHT22;19277;51.778;7.912;2023-04-06T06:45:25;17.30;41.50
32600;DHT22;19277;51.778;7.912;2023-04-06T06:47:51;16.40;42.80
32600;DHT22;19277;51.778;7.912;2023-04-06T06:50:17;15.80;44.40
32600;DHT22;19277;51.778;7.912;2023-04-06T06:52:43;15.20;44.70
32600;DHT22;19277;51.778;7.912;2023-04-06T06:55:09;15.00;44.60
32600;DHT22;19277;51.778;7.912;2023-04-06T06:57:36;15.00;45.20
32600;DHT22;19277;51.778;7.912;2023-04-06T07:00:02;15.10;44.10
32600;DHT22;19277;51.778;7.912;2023-04-06T07:02:28;14.60;44.10
32600;DHT22;19277;51.778;7.912;2023-04-06T07:04:53;14.60;45.50
32600;DHT22;19277;51.778;7.912;2023-04-06T07:07:19;14.90;44.70
32600;DHT22;19277;51.778;7.912;2023-04-06T07:09:45;14.70;44.00
32600;DHT22;19277;51.778;7.912;2023-04-06T07:12:10;14.90;44.80
32600;DHT22;19277;51.778;7.912;2023-04-06T07:14:36;14.80;44.20
32600;DHT22;19277;51.778;7.912;2023-04-06T07:17:02;14.90;46.60
32600;DHT22;19277;51.778;7.912;2023-04-06T07:19:27;14.90;46.30
32600;DHT22;19277;51.778;7.912;2023-04-06T07:21:53;14.90;47.50
32600;DHT22;19277;51.778;7.912;2023-04-06T07:24:19;15.30;46.50
32600;DHT22;19277;51.778;7.912;2023-04-06T07:26:45;15.20;46.60
32600;DHT22;19277;51.778;7.912;2023-04-06T07:29:11;15.40;47.10
32600;DHT22;19277;51.778;7.912;2023-04-06T07:31:38;15.20;46.30
32600;DHT22;19277;51.778;7.912;2023-04-06T07:34:03;15.10;45.40
32600;DHT22;19277;51.778;7.912;2023-04-06T07:36:29;15.10;46.70
32600;DHT22;19277;51.778;7.912;2023-04-06T07:38:55;15.50;47.40
32600;DHT22;19277;51.778;7.912;2023-04-06T07:41:20;16.00;51.20
32600;DHT22;19277;51.778;7.912;2023-04-06T07:43:46;16.60;51.40
32600;DHT22;19277;51.778;7.912;2023-04-06T07:46:11;17.20;51.50
32600;DHT22;19277;51.778;7.912;2023-04-06T07:48:37;17.80;51.60
32600;DHT22;19277;51.778;7.912;2023-04-06T07:51:04;18.30;51.40
32600;DHT22;19277;51.778;7.912;2023-04-06T07:53:30;18.70;51.30
32600;DHT22;19277;51.778;7.912;2023-04-06T07:55:57;19.00;51.20
32600;DHT22;19277;51.778;7.912;2023-04-06T07:58:23;19.20;51.10
32600;DHT22;19277;51.778;7.912;2023-04-06T08:00:49;19.50;51.30
32600;DHT22;19277;51.778;7.912;2023-04-06T08:03:14;19.70;51.30
32600;DHT22;19277;51.778;7.912;2023-04-06T08:05:42;19.80;51.40
32600;DHT22;19277;51.778;7.912;2023-04-06T08:08:08;20.00;51.70
32600;DHT22;19277;51.778;7.912;2023-04-06T08:10:34;20.00;51.70
32600;DHT22;19277;51.778;7.912;2023-04-06T08:13:00;20.10;51.90
32600;DHT22;19277;51.778;7.912;2023-04-06T08:15:25;20.20;52.00
32600;DHT22;19277;51.778;7.912;2023-04-06T08:17:51;20.30;52.20
32600;DHT22;19277;51.778;7.912;2023-04-06T08:20:17;20.40;52.30
32600;DHT22;19277;51.778;7.912;2023-04-06T08:22:43;20.50;52.40
32600;DHT22;19277;51.778;7.912;2023-04-06T08:25:09;20.50;52.60
32600;DHT22;19277;51.778;7.912;2023-04-06T08:27:34;20.60;52.70
32600;DHT22;19277;51.778;7.912;2023-04-06T08:30:00;20.60;52.90
32600;DHT22;19277;51.778;7.912;2023-04-06T08:32:26;20.70;53.00
32600;DHT22;19277;51.778;7.912;2023-04-06T08:34:55;20.70;53.10
32600;DHT22;19277;51.778;7.912;2023-04-06T08:37:21;20.80;53.20
32600;DHT22;19277;51.778;7.912;2023-04-06T08:39:47;20.80;53.40
32600;DHT22;19277;51.778;7.912;2023-04-06T08:42:19;20.80;53.40
32600;DHT22;19277;51.778;7.912;2023-04-06T08:44:47;20.90;53.60
32600;DHT22;19277;51.778;7.912;2023-04-06T08:47:13;20.90;53.70
32600;DHT22;19277;51.778;7.912;2023-04-06T08:49:40;21.00;53.70
32600;DHT22;19277;51.778;7.912;2023-04-06T08:52:07;21.00;53.80
32600;DHT22;19277;51.778;7.912;2023-04-06T08:54:34;21.10;53.90
32600;DHT22;19277;51.778;7.912;2023-04-06T08:57:01;21.10;54.00
32600;DHT22;19277;51.778;7.912;2023-04-06T08:59:27;21.10;53.90
32600;DHT22;19277;51.778;7.912;2023-04-06T09:01:54;21.20;54.20
32600;DHT22;19277;51.778;7.912;2023-04-06T09:04:20;21.20;54.20
32600;DHT22;19277;51.778;7.912;2023-04-06T09:06:46;21.20;54.20
32600;DHT22;19277;51.778;7.912;2023-04-06T09:09:12;21.30;54.30
32600;DHT22;19277;51.778;7.912;2023-04-06T09:11:48;21.30;54.20
32600;DHT22;19277;51.778;7.912;2023-04-06T09:14:15;21.30;54.30
32600;DHT22;19277;51.778;7.912;2023-04-06T09:16:42;21.40;54.50
32600;DHT22;19277;51.778;7.912;2023-04-06T09:19:09;21.40;54.60
32600;DHT22;19277;51.778;7.912;2023-04-06T09:21:35;21.40;54.60
32600;DHT22;19277;51.778;7.912;2023-04-06T09:24:02;21.50;54.70
32600;DHT22;19277;51.778;7.912;2023-04-06T09:26:29;21.50;54.80
32600;DHT22;19277;51.778;7.912;2023-04-06T09:28:56;21.50;54.90
32600;DHT22;19277;51.778;7.912;2023-04-06T09:33:49;21.60;55.00
32600;DHT22;19277;51.778;7.912;2023-04-06T09:36:15;21.60;54.90
32600;DHT22;19277;51.778;7.912;2023-04-06T09:38:58;21.60;55.00
32600;DHT22;19277;51.778;7.912;2023-04-06T09:41:29;21.70;55.00
32600;DHT22;19277;51.778;7.912;2023-04-06T09:44:06;21.70;55.00
32600;DHT22;19277;51.778;7.912;2023-04-06T09:46:36;21.80;55.10
32600;DHT22;19277;51.778;7.912;2023-04-06T09:49:02;21.80;55.10
32600;DHT22;19277;51.778;7.912;2023-04-06T09:51:54;21.80;55.10
32600;DHT22;19277;51.778;7.912;2023-04-06T09:54:22;21.80;55.10
32600;DHT22;19277;51.778;7.912;2023-04-06T10:02:01;21.90;55.30
32600;DHT22;19277;51.778;7.912;2023-04-06T10:04:46;22.00;55.50
32600;DHT22;19277;51.778;7.912;2023-04-06T10:07:14;22.00;55.50
32600;DHT22;19277;51.778;7.912;2023-04-06T10:09:43;22.00;55.70
32600;DHT22;19277;51.778;7.912;2023-04-06T10:12:10;22.00;55.90
32600;DHT22;19277;51.778;7.912;2023-04-06T10:14:37;22.00;56.10
32600;DHT22;19277;51.778;7.912;2023-04-06T10:17:05;22.00;56.70
32600;DHT22;19277;51.778;7.912;2023-04-06T10:19:44;22.00;56.40
32600;DHT22;19277;51.778;7.912;2023-04-06T10:22:20;22.10;56.50
32600;DHT22;19277;51.778;7.912;2023-04-06T10:24:48;22.10;56.50
32600;DHT22;19277;51.778;7.912;2023-04-06T10:27:13;22.10;56.80
32600;DHT22;19277;51.778;7.912;2023-04-06T10:29:46;22.10;56.70
32600;DHT22;19277;51.778;7.912;2023-04-06T10:32:14;22.10;56.90
32600;DHT22;19277;51.778;7.912;2023-04-06T10:34:39;22.10;57.00
32600;DHT22;19277;51.778;7.912;2023-04-06T10:37:15;22.10;57.00
32600;DHT22;19277;51.778;7.912;2023-04-06T10:39:52;22.20;57.10
32600;DHT22;19277;51.778;7.912;2023-04-06T10:42:24;22.20;57.00
32600;DHT22;19277;51.778;7.912;2023-04-06T10:44:50;22.20;57.00
32600;DHT22;19277;51.778;7.912;2023-04-06T10:47:17;22.20;57.00
32600;DHT22;19277;51.778;7.912;2023-04-06T10:49:46;22.20;57.20
32600;DHT22;19277;51.778;7.912;2023-04-06T10:52:11;22.20;57.30
32600;DHT22;19277;51.778;7.912;2023-04-06T10:54:43;22.30;57.40
32600;DHT22;19277;51.778;7.912;2023-04-06T10:57:12;22.30;57.40
32600;DHT22;19277;51.778;7.912;2023-04-06T10:59:42;22.30;57.50
32600;DHT22;19277;51.778;7.912;2023-04-06T11:02:08;22.30;57.50
32600;DHT22;19277;51.778;7.912;2023-04-06T11:04:34;22.40;57.50
32600;DHT22;19277;51.778;7.912;2023-04-06T11:07:00;22.40;57.50
32600;DHT22;19277;51.778;7.912;2023-04-06T11:09:26;22.40;57.50
32600;DHT22;19277;51.778;7.912;2023-04-06T11:11:53;22.40;57.50
32600;DHT22;19277;51.778;7.912;2023-04-06T11:14:19;22.50;57.60
32600;DHT22;19277;51.778;7.912;2023-04-06T11:16:46;22.50;57.60
32600;DHT22;19277;51.778;7.912;2023-04-06T11:19:14;22.00;40.00
32600;DHT22;19277;51.778;7.912;2023-04-06T11:21:41;21.20;42.90
32600;DHT22;19277;51.778;7.912;2023-04-06T11:26:57;20.10;40.10
32600;DHT22;19277;51.778;7.912;2023-04-06T11:29:28;19.60;42.60
32600;DHT22;19277;51.778;7.912;2023-04-06T11:32:01;19.80;49.60
32600;DHT22;19277;51.778;7.912;2023-04-06T11:34:29;20.10;51.90
32600;DHT22;19277;51.778;7.912;2023-04-06T11:37:00;20.60;55.40
32600;DHT22;19277;51.778;7.912;2023-04-06T11:39:28;21.00;56.30
32600;DHT22;19277;51.778;7.912;2023-04-06T11:41:58;21.20;56.90
32600;DHT22;19277;51.778;7.912;2023-04-06T11:44:39;21.50;57.90
32600;DHT22;19277;51.778;7.912;2023-04-06T11:47:06;21.80;58.30
32600;DHT22;19277;51.778;7.912;2023-04-06T11:49:36;21.90;58.40
32600;DHT22;19277;51.778;7.912;2023-04-06T11:52:02;22.10;58.20
32600;DHT22;19277;51.778;7.912;2023-04-06T11:54:34;22.20;57.70
32600;DHT22;19277;51.778;7.912;2023-04-06T11:57:01;22.30;58.30
32600;DHT22;19277;51.778;7.912;2023-04-06T11:59:27;22.30;58.40
32600;DHT22;19277;51.778;7.912;2023-04-06T12:01:53;22.40;58.70
32600;DHT22;19277;51.778;7.912;2023-04-06T12:04:19;22.50;58.80
32600;DHT22;19277;51.778;7.912;2023-04-06T12:06:45;22.50;59.00
32600;DHT22;19277;51.778;7.912;2023-04-06T12:09:11;22.60;58.90
32600;DHT22;19277;51.778;7.912;2023-04-06T12:11:37;22.60;58.60
32600;DHT22;19277;51.778;7.912;2023-04-06T12:14:03;22.70;58.50
32600;DHT22;19277;51.778;7.912;2023-04-06T12:16:30;22.70;58.00
32600;DHT22;19277;51.778;7.912;2023-04-06T12:18:56;22.70;57.20
32600;DHT22;19277;51.778;7.912;2023-04-06T12:21:22;22.80;57.10
32600;DHT22;19277;51.778;7.912;2023-04-06T12:23:47;22.80;57.00
32600;DHT22;19277;51.778;7.912;2023-04-06T12:26:13;22.80;57.10
32600;DHT22;19277;51.778;7.912;2023-04-06T12:28:38;22.80;57.20
32600;DHT22;19277;51.778;7.912;2023-04-06T12:31:04;22.80;57.30
32600;DHT22;19277;51.778;7.912;2023-04-06T12:33:30;22.90;57.10
32600;DHT22;19277;51.778;7.912;2023-04-06T12:35:55;22.90;57.20
32600;DHT22;19277;51.778;7.912;2023-04-06T12:38:21;22.90;57.20
32600;DHT22;19277;51.778;7.912;2023-04-06T12:40:47;22.90;57.20
32600;DHT22;19277;51.778;7.912;2023-04-06T12:43:13;22.90;57.20
32600;DHT22;19277;51.778;7.912;2023-04-06T12:45:39;22.90;57.30
32600;DHT22;19277;51.778;7.912;2023-04-06T12:48:06;22.90;57.30
32600;DHT22;19277;51.778;7.912;2023-04-06T12:50:32;23.00;57.50
32600;DHT22;19277;51.778;7.912;2023-04-06T12:52:57;23.00;54.50
32600;DHT22;19277;51.778;7.912;2023-04-06T12:55:23;23.00;49.40
32600;DHT22;19277;51.778;7.912;2023-04-06T12:57:49;22.80;49.40
32600;DHT22;19277;51.778;7.912;2023-04-06T13:00:15;22.80;48.60
32600;DHT22;19277;51.778;7.912;2023-04-06T13:02:41;22.60;47.80
32600;DHT22;19277;51.778;7.912;2023-04-06T13:05:12;22.60;48.00
32600;DHT22;19277;51.778;7.912;2023-04-06T13:07:38;22.50;48.60
32600;DHT22;19277;51.778;7.912;2023-04-06T13:10:04;22.40;48.30
32600;DHT22;19277;51.778;7.912;2023-04-06T13:12:29;22.30;47.80
32600;DHT22;19277;51.778;7.912;2023-04-06T13:14:55;22.30;48.80
32600;DHT22;19277;51.778;7.912;2023-04-06T13:17:22;22.30;48.60
32600;DHT22;19277;51.778;7.912;2023-04-06T13:19:47;22.30;48.60
32600;DHT22;19277;51.778;7.912;2023-04-06T13:22:13;22.30;48.60
32600;DHT22;19277;51.778;7.912;2023-04-06T13:24:39;22.40;49.10
32600;DHT22;19277;51.778;7.912;2023-04-06T13:27:04;22.40;48.70
32600;DHT22;19277;51.778;7.912;2023-04-06T13:29:30;22.40;47.90
32600;DHT22;19277;51.778;7.912;2023-04-06T13:31:56;22.40;47.70
32600;DHT22;19277;51.778;7.912;2023-04-06T13:34:21;22.40;48.80
32600;DHT22;19277;51.778;7.912;2023-04-06T13:36:47;22.20;41.30
32600;DHT22;19277;51.778;7.912;2023-04-06T13:39:13;21.60;40.50
32600;DHT22;19277;51.778;7.912;2023-04-06T13:41:38;21.10;39.30
32600;DHT22;19277;51.778;7.912;2023-04-06T13:44:05;20.50;41.90
32600;DHT22;19277;51.778;7.912;2023-04-06T13:46:31;20.20;38.70
32600;DHT22;19277;51.778;7.912;2023-04-06T13:48:57;19.80;38.60
32600;DHT22;19277;51.778;7.912;2023-04-06T13:51:23;19.70;39.90
32600;DHT22;19277;51.778;7.912;2023-04-06T13:53:48;19.50;39.90
32600;DHT22;19277;51.778;7.912;2023-04-06T13:56:17;19.40;39.30
32600;DHT22;19277;51.778;7.912;2023-04-06T13:58:43;19.10;39.80
32600;DHT22;19277;51.778;7.912;2023-04-06T14:01:09;18.90;39.10
32600;DHT22;19277;51.778;7.912;2023-04-06T14:03:35;18.80;39.40
32600;DHT22;19277;51.778;7.912;2023-04-06T14:06:10;18.70;40.30
32600;DHT22;19277;51.778;7.912;2023-04-06T14:08:35;18.50;39.80
32600;DHT22;19277;51.778;7.912;2023-04-06T14:11:01;18.40;39.50
32600;DHT22;19277;51.778;7.912;2023-04-06T14:13:26;18.20;40.00
32600;DHT22;19277;51.778;7.912;2023-04-06T14:15:53;18.40;40.50
32600;DHT22;19277;51.778;7.912;2023-04-06T14:18:20;18.40;42.20
32600;DHT22;19277;51.778;7.912;2023-04-06T14:20:56;18.40;41.00
32600;DHT22;19277;51.778;7.912;2023-04-06T14:23:23;18.50;42.30
32600;DHT22;19277;51.778;7.912;2023-04-06T14:25:51;18.60;42.00
32600;DHT22;19277;51.778;7.912;2023-04-06T14:28:16;18.60;41.90
32600;DHT22;19277;51.778;7.912;2023-04-06T14:30:43;18.70;41.20
32600;DHT22;19277;51.778;7.912;2023-04-06T14:33:08;18.40;40.90
32600;DHT22;19277;51.778;7.912;2023-04-06T14:35:38;18.40;42.80
32600;DHT22;19277;51.778;7.912;2023-04-06T14:38:04;18.30;41.70
32600;DHT22;19277;51.778;7.912;2023-04-06T14:40:29;18.30;43.40
32600;DHT22;19277;51.778;7.912;2023-04-06T14:42:55;18.10;43.00
32600;DHT22;19277;51.778;7.912;2023-04-06T14:45:21;17.90;42.60
32600;DHT22;19277;51.778;7.912;2023-04-06T14:47:47;17.70;44.10
32600;DHT22;19277;51.778;7.912;2023-04-06T14:50:13;18.10;46.70
32600;DHT22;19277;51.778;7.912;2023-04-06T14:52:39;18.50;47.70
32600;DHT22;19277;51.778;7.912;2023-04-06T14:55:05;19.00;48.70
32600;DHT22;19277;51.778;7.912;2023-04-06T14:57:31;19.50;48.40
32600;DHT22;19277;51.778;7.912;2023-04-06T14:59:58;19.90;49.10
32600;DHT22;19277;51.778;7.912;2023-04-06T15:02:23;20.20;48.30
32600;DHT22;19277;51.778;7.912;2023-04-06T15:04:49;20.50;49.10
32600;DHT22;19277;51.778;7.912;2023-04-06T15:07:14;20.70;49.40
32600;DHT22;19277;51.778;7.912;2023-04-06T15:09:40;20.80;49.40
32600;DHT22;19277;51.778;7.912;2023-04-06T15:12:06;20.90;48.90
32600;DHT22;19277;51.778;7.912;2023-04-06T15:14:31;21.10;49.30
32600;DHT22;19277;51.778;7.912;2023-04-06T15:16:57;21.20;50.00
32600;DHT22;19277;51.778;7.912;2023-04-06T15:19:22;21.20;50.10
32600;DHT22;19277;51.778;7.912;2023-04-06T15:21:48;21.30;49.80
32600;DHT22;19277;51.778;7.912;2023-04-06T15:24:13;21.40;50.10
32600;DHT22;19277;51.778;7.912;2023-04-06T15:26:39;21.50;50.50
32600;DHT22;19277;51.778;7.912;2023-04-06T15:29:05;21.50;50.30
32600;DHT22;19277;51.778;7.912;2023-04-06T15:31:31;21.50;50.30
32600;DHT22;19277;51.778;7.912;2023-04-06T15:33:58;21.60;50.70
32600;DHT22;19277;51.778;7.912;2023-04-06T15:36:28;21.60;50.60
32600;DHT22;19277;51.778;7.912;2023-04-06T15:38:56;21.70;50.80
32600;DHT22;19277;51.778;7.912;2023-04-06T15:41:22;21.70;51.00